createdAt,value
2022-10-22T00:01:33.610Z,100890
2022-10-22T00:06:32.686Z,100890
2022-10-22T00:11:32.015Z,100890
2022-10-22T00:16:32.029Z,100890
2022-10-22T00:21:32.012Z,100900
2022-10-22T00:26:32.200Z,100900
2022-10-22T00:31:32.005Z,100900
2022-10-22T00:36:32.027Z,100910
2022-10-22T00:41:32.064Z,100910
2022-10-22T00:46:32.048Z,100900
2022-10-22T00:51:34.602Z,100910
2022-10-22T00:56:32.093Z,100900
2022-10-22T01:01:33.609Z,100910
2022-10-22T01:06:32.737Z,100910
2022-10-22T01:11:39.870Z,100900
2022-10-22T01:16:52.019Z,100900
2022-10-22T01:21:40.756Z,100900
2022-10-22T01:26:52.043Z,100900
2022-10-22T01:31:38.736Z,100900
2022-10-22T01:36:34.633Z,100900
2022-10-22T01:41:33.871Z,100890
2022-10-22T01:46:32.369Z,100890
2022-10-22T01:51:48.527Z,100890
2022-10-22T01:56:47.431Z,100900
2022-10-22T02:01:39.909Z,100900
2022-10-22T02:06:35.226Z,100890
2022-10-22T02:11:32.957Z,100890
2022-10-22T02:16:42.486Z,100890
2022-10-22T02:21:32.499Z,100890
2022-10-22T02:26:46.575Z,100880
2022-10-22T02:31:36.523Z,100890
2022-10-22T02:36:33.127Z,100890
2022-10-22T02:41:32.414Z,100900
2022-10-22T02:46:32.317Z,100900
2022-10-22T02:51:33.312Z,100890
2022-10-22T02:56:32.596Z,100900
2022-10-22T03:01:33.239Z,100900
2022-10-22T03:06:32.491Z,100900
2022-10-22T03:11:32.395Z,100900
2022-10-22T03:16:32.410Z,100900
2022-10-22T03:21:36.931Z,100900
2022-10-22T03:26:33.281Z,100910
2022-10-22T03:31:32.461Z,100910
2022-10-22T03:36:33.033Z,100910
2022-10-22T03:41:33.238Z,100920
2022-10-22T03:46:32.502Z,100920
2022-10-22T03:51:32.585Z,100920
2022-10-22T03:56:32.650Z,100940
2022-10-22T04:01:33.311Z,100940
2022-10-22T04:06:32.522Z,100940
2022-10-22T04:11:32.589Z,100940
2022-10-22T04:16:32.521Z,100940
2022-10-22T04:21:33.536Z,100940
2022-10-22T04:26:32.814Z,100940
2022-10-22T04:31:32.595Z,100950
2022-10-22T04:36:33.005Z,100940
2022-10-22T04:41:35.944Z,100940
2022-10-22T04:46:34.134Z,100940
2022-10-22T04:51:32.620Z,100950
2022-10-22T04:56:32.658Z,100940
2022-10-22T05:01:38.408Z,100960
2022-10-22T05:06:34.438Z,100960
2022-10-22T05:11:35.303Z,100970
2022-10-22T05:16:33.179Z,100970
2022-10-22T05:21:33.447Z,100970
2022-10-22T05:26:32.861Z,100970
2022-10-22T05:31:33.100Z,100970
2022-10-22T05:36:32.722Z,100970
2022-10-22T05:41:33.932Z,100970
2022-10-22T05:46:34.921Z,100980
2022-10-22T05:51:35.178Z,100980
2022-10-22T05:56:33.936Z,100990
2022-10-22T06:01:33.941Z,101000
2022-10-22T06:06:36.709Z,101010
2022-10-22T06:11:35.107Z,101000
2022-10-22T06:16:32.874Z,101010
2022-10-22T06:21:32.816Z,101020
2022-10-22T06:26:32.869Z,101030
2022-10-22T06:31:32.966Z,101030
2022-10-22T06:36:33.514Z,101040
2022-10-22T06:41:32.904Z,101050
2022-10-22T06:46:32.872Z,101060
2022-10-22T06:51:32.891Z,101060
2022-10-22T06:56:32.883Z,101070
2022-10-22T07:01:35.704Z,101080
2022-10-22T07:06:32.926Z,101090
2022-10-22T07:11:42.482Z,101090
2022-10-22T07:16:33.102Z,101100
2022-10-22T07:21:33.041Z,101100
2022-10-22T07:26:32.999Z,101100
2022-10-22T07:31:33.017Z,101110
2022-10-22T07:36:33.076Z,101110
2022-10-22T07:41:33.033Z,101120
2022-10-22T07:46:33.089Z,101120
2022-10-22T07:51:33.042Z,101130
2022-10-22T07:56:33.034Z,101140
2022-10-22T08:01:33.893Z,101150
2022-10-22T08:06:33.771Z,101150
2022-10-22T08:11:33.111Z,101160
2022-10-22T08:16:33.293Z,101170
2022-10-22T08:21:33.121Z,101170
2022-10-22T08:26:33.122Z,101180
2022-10-22T08:31:33.565Z,101180
2022-10-22T08:36:33.424Z,101190
2022-10-22T08:41:40.255Z,101190
2022-10-22T08:46:44.162Z,101200
2022-10-22T08:51:35.693Z,101220
2022-10-22T08:56:36.655Z,101220
2022-10-22T09:01:38.930Z,101220
2022-10-22T09:06:35.441Z,101230
2022-10-22T09:11:36.569Z,101230
2022-10-22T09:16:41.949Z,101240
2022-10-22T09:21:45.046Z,101250
2022-10-22T09:26:37.394Z,101260
2022-10-22T09:31:33.437Z,101260
2022-10-22T09:36:34.428Z,101270
2022-10-22T09:41:33.305Z,101270
2022-10-22T09:46:37.833Z,101280
2022-10-22T09:51:53.181Z,101290
2022-10-22T09:56:38.609Z,101290
2022-10-22T10:01:35.913Z,101300
2022-10-22T10:06:34.301Z,101300
2022-10-22T10:11:45.116Z,101300
2022-10-22T10:16:40.110Z,101310
2022-10-22T10:21:43.285Z,101310
2022-10-22T10:26:51.166Z,101310
2022-10-22T10:31:43.660Z,101320
2022-10-22T10:36:50.982Z,101320
2022-10-22T10:41:43.337Z,101330
2022-10-22T10:46:46.849Z,101330
2022-10-22T10:51:40.699Z,101340
2022-10-22T10:56:40.674Z,101340
2022-10-22T11:01:46.040Z,101340
2022-10-22T11:06:38.375Z,101340
2022-10-22T11:11:42.935Z,101340
2022-10-22T11:16:45.009Z,101340
2022-10-22T11:21:39.152Z,101350
2022-10-22T11:26:44.083Z,101360
2022-10-22T11:31:33.978Z,101360
2022-10-22T11:36:34.602Z,101360
2022-10-22T11:41:35.149Z,101360
2022-10-22T11:46:37.779Z,101350
2022-10-22T11:51:36.712Z,101350
2022-10-22T11:56:37.659Z,101360
2022-10-22T12:01:42.207Z,101370
2022-10-22T12:06:52.228Z,101360
2022-10-22T12:11:37.282Z,101370
2022-10-22T12:16:55.241Z,101360
2022-10-22T12:21:33.650Z,101360
2022-10-22T12:26:33.610Z,101360
2022-10-22T12:31:37.923Z,101360
2022-10-22T12:36:35.581Z,101370
2022-10-22T12:41:35.973Z,101380
2022-10-22T12:46:34.874Z,101380
2022-10-22T12:51:33.815Z,101380
2022-10-22T12:56:36.376Z,101380
2022-10-22T13:01:38.147Z,101370
2022-10-22T13:06:34.532Z,101370
2022-10-22T13:11:40.026Z,101370
2022-10-22T13:16:33.774Z,101370
2022-10-22T13:21:37.562Z,101370
2022-10-22T13:26:36.116Z,101370
2022-10-22T13:31:33.792Z,101370
2022-10-22T13:36:34.615Z,101360
2022-10-22T13:46:33.878Z,101370
2022-10-22T13:51:34.427Z,101370
2022-10-22T13:56:33.832Z,101370
2022-10-22T14:01:36.114Z,101370
2022-10-22T14:06:33.901Z,101370
2022-10-22T14:11:33.884Z,101370
2022-10-22T14:16:35.180Z,101380
2022-10-22T14:21:35.757Z,101380
2022-10-22T14:26:34.061Z,101380
2022-10-22T14:31:34.097Z,101390
2022-10-22T14:36:33.897Z,101400
2022-10-22T14:41:34.103Z,101390
2022-10-22T14:46:33.970Z,101400
2022-10-22T14:51:33.991Z,101410
2022-10-22T14:56:34.199Z,101410
2022-10-22T15:01:34.795Z,101410
2022-10-22T15:06:34.469Z,101420
2022-10-22T15:11:33.990Z,101420
2022-10-22T15:16:34.015Z,101420
2022-10-22T15:21:34.047Z,101420
2022-10-22T15:26:34.166Z,101420
2022-10-22T15:31:48.396Z,101430
2022-10-22T15:36:34.050Z,101430
2022-10-22T15:41:34.301Z,101430
2022-10-22T15:46:35.505Z,101430
2022-10-22T15:51:34.092Z,101430
2022-10-22T15:56:34.091Z,101420
2022-10-22T16:01:35.420Z,101420
2022-10-22T16:06:37.104Z,101430
2022-10-22T16:11:35.382Z,101430
2022-10-22T16:16:36.222Z,101420
2022-10-22T16:21:34.170Z,101420
2022-10-22T16:26:34.924Z,101430
2022-10-22T16:31:34.248Z,101430
2022-10-22T16:36:34.230Z,101440
2022-10-22T16:41:34.902Z,101440
2022-10-22T16:46:35.342Z,101440
2022-10-22T16:51:35.012Z,101430
2022-10-22T16:56:34.251Z,101440
2022-10-22T17:01:40.316Z,101440
2022-10-22T17:06:34.491Z,101440
2022-10-22T17:11:34.267Z,101450
2022-10-22T17:16:34.300Z,101450
2022-10-22T17:21:34.335Z,101460
2022-10-22T17:26:34.433Z,101470
2022-10-22T17:31:35.234Z,101470
2022-10-22T17:36:36.198Z,101480
2022-10-22T17:41:36.249Z,101480
2022-10-22T17:46:34.375Z,101470
2022-10-22T17:51:34.389Z,101470
2022-10-22T17:56:34.471Z,101470
2022-10-22T18:01:37.360Z,101480
2022-10-22T18:06:34.773Z,101480
2022-10-22T18:11:35.014Z,101490
2022-10-22T18:16:34.733Z,101480
2022-10-22T18:21:34.422Z,101480
2022-10-22T18:26:34.627Z,101480
2022-10-22T18:31:34.460Z,101480
2022-10-22T18:36:34.482Z,101490
2022-10-22T18:41:34.490Z,101490
2022-10-22T18:46:34.745Z,101500
2022-10-22T18:51:34.990Z,101500
2022-10-22T18:56:35.141Z,101500
2022-10-22T19:01:35.402Z,101500
2022-10-22T19:06:36.994Z,101490
2022-10-22T19:11:34.992Z,101480
2022-10-22T19:16:34.579Z,101470
2022-10-22T19:21:36.256Z,101470
2022-10-22T19:26:34.663Z,101470
2022-10-22T19:31:34.640Z,101460
2022-10-22T19:36:34.607Z,101460
2022-10-22T19:41:34.651Z,101460
2022-10-22T19:46:34.732Z,101470
2022-10-22T19:51:34.635Z,101470
2022-10-22T19:56:34.994Z,101470
2022-10-22T20:01:36.450Z,101470
2022-10-22T20:06:34.663Z,101470
2022-10-22T20:11:34.677Z,101470
2022-10-22T20:16:34.746Z,101470
2022-10-22T20:21:34.749Z,101480
2022-10-22T20:26:34.723Z,101470
2022-10-22T20:31:34.744Z,101480
2022-10-22T20:36:34.759Z,101480
2022-10-22T20:41:35.442Z,101480
2022-10-22T20:46:34.776Z,101470
2022-10-22T20:51:35.669Z,101480
2022-10-22T20:56:37.174Z,101480
2022-10-22T21:01:39.413Z,101480
2022-10-22T21:06:35.073Z,101480
2022-10-22T21:11:36.245Z,101470
2022-10-22T21:16:35.307Z,101490
2022-10-22T21:21:35.050Z,101500
2022-10-22T21:26:36.672Z,101490
2022-10-22T21:31:35.369Z,101490
2022-10-22T21:36:35.021Z,101490
2022-10-22T21:41:35.712Z,101490
2022-10-22T21:46:34.929Z,101500
2022-10-22T21:51:34.882Z,101500
2022-10-22T21:56:35.568Z,101500
2022-10-22T22:01:35.835Z,101490
2022-10-22T22:06:35.223Z,101500
2022-10-22T22:11:34.941Z,101490
2022-10-22T22:16:34.998Z,101490
2022-10-22T22:21:36.837Z,101480
2022-10-22T22:26:35.649Z,101470
2022-10-22T22:31:35.149Z,101460
2022-10-22T22:36:37.474Z,101470
2022-10-22T22:41:34.997Z,101460
2022-10-22T22:46:35.307Z,101450
2022-10-22T22:51:35.038Z,101460
2022-10-22T22:56:35.798Z,101460
2022-10-22T23:01:38.420Z,101440
2022-10-22T23:06:36.107Z,101440
2022-10-22T23:11:35.524Z,101440
2022-10-22T23:16:38.570Z,101430
2022-10-22T23:21:38.787Z,101430
2022-10-22T23:26:38.072Z,101430
2022-10-22T23:31:35.243Z,101440
2022-10-22T23:36:36.308Z,101440
2022-10-22T23:41:36.067Z,101430
2022-10-22T23:46:36.027Z,101420
2022-10-22T23:51:35.618Z,101400
2022-10-22T23:56:35.253Z,101400
